sensor_id;sensor_type;location;lat;lon;timestamp;P1;durP1;ratioP1;P2;durP2;ratioP2
51692;SDS011;37777;53.066;21.638;2022-09-30T00:02:02;22.20;;;11.52;;
51692;SDS011;37777;53.066;21.638;2022-09-30T00:09:04;21.75;;;11.68;;
51692;SDS011;37777;53.066;21.638;2022-09-30T00:16:07;17.90;;;10.65;;
51692;SDS011;37777;53.066;21.638;2022-09-30T00:23:09;19.02;;;10.65;;
51692;SDS011;37777;53.066;21.638;2022-09-30T00:30:11;20.38;;;11.15;;
51692;SDS011;37777;53.066;21.638;2022-09-30T00:37:13;21.67;;;12.05;;
51692;SDS011;37777;53.066;21.638;2022-09-30T00:51:38;16.58;;;10.00;;
51692;SDS011;37777;53.066;21.638;2022-09-30T00:58:50;21.75;;;11.30;;
51692;SDS011;37777;53.066;21.638;2022-09-30T01:05:53;20.63;;;11.18;;
51692;SDS011;37777;53.066;21.638;2022-09-30T01:12:55;17.00;;;10.75;;
51692;SDS011;37777;53.066;21.638;2022-09-30T01:41:35;17.98;;;9.95;;
51692;SDS011;37777;53.066;21.638;2022-09-30T01:56:07;15.32;;;9.68;;
51692;SDS011;37777;53.066;21.638;2022-09-30T02:17:20;21.70;;;8.45;;
51692;SDS011;37777;53.066;21.638;2022-09-30T02:24:24;16.95;;;8.80;;
51692;SDS011;37777;53.066;21.638;2022-09-30T02:31:27;16.30;;;9.27;;
51692;SDS011;37777;53.066;21.638;2022-09-30T02:38:30;15.50;;;8.27;;
51692;SDS011;37777;53.066;21.638;2022-09-30T02:45:35;17.55;;;8.38;;
51692;SDS011;37777;53.066;21.638;2022-09-30T02:52:54;13.32;;;8.35;;
51692;SDS011;37777;53.066;21.638;2022-09-30T02:59:58;13.97;;;8.77;;
51692;SDS011;37777;53.066;21.638;2022-09-30T03:07:04;21.83;;;8.85;;
51692;SDS011;37777;53.066;21.638;2022-09-30T03:28:51;15.57;;;8.93;;
51692;SDS011;37777;53.066;21.638;2022-09-30T03:36:00;24.58;;;10.43;;
51692;SDS011;37777;53.066;21.638;2022-09-30T03:43:04;32.08;;;12.30;;
51692;SDS011;37777;53.066;21.638;2022-09-30T03:50:07;35.30;;;14.90;;
51692;SDS011;37777;53.066;21.638;2022-09-30T03:57:10;41.60;;;15.93;;
51692;SDS011;37777;53.066;21.638;2022-09-30T04:04:11;24.15;;;11.65;;
51692;SDS011;37777;53.066;21.638;2022-09-30T04:11:13;23.40;;;12.63;;
51692;SDS011;37777;53.066;21.638;2022-09-30T04:18:15;21.52;;;10.60;;
51692;SDS011;37777;53.066;21.638;2022-09-30T04:25:17;14.80;;;8.82;;
51692;SDS011;37777;53.066;21.638;2022-09-30T04:32:20;16.63;;;9.45;;
51692;SDS011;37777;53.066;21.638;2022-09-30T04:39:22;15.57;;;9.43;;
51692;SDS011;37777;53.066;21.638;2022-09-30T04:46:24;15.30;;;9.10;;
51692;SDS011;37777;53.066;21.638;2022-09-30T04:53:26;15.52;;;9.20;;
51692;SDS011;37777;53.066;21.638;2022-09-30T05:00:28;20.77;;;9.93;;
51692;SDS011;37777;53.066;21.638;2022-09-30T05:07:31;20.38;;;9.60;;
51692;SDS011;37777;53.066;21.638;2022-09-30T05:14:32;17.83;;;9.80;;
51692;SDS011;37777;53.066;21.638;2022-09-30T05:21:35;20.70;;;10.23;;
51692;SDS011;37777;53.066;21.638;2022-09-30T05:28:37;13.50;;;8.70;;
51692;SDS011;37777;53.066;21.638;2022-09-30T05:35:39;14.88;;;9.63;;
51692;SDS011;37777;53.066;21.638;2022-09-30T05:42:41;17.40;;;10.25;;
51692;SDS011;37777;53.066;21.638;2022-09-30T05:49:45;17.85;;;10.15;;
51692;SDS011;37777;53.066;21.638;2022-09-30T05:56:47;30.65;;;14.77;;
51692;SDS011;37777;53.066;21.638;2022-09-30T06:03:49;35.20;;;17.38;;
51692;SDS011;37777;53.066;21.638;2022-09-30T06:10:51;40.63;;;20.13;;
51692;SDS011;37777;53.066;21.638;2022-09-30T06:17:53;26.27;;;15.07;;
51692;SDS011;37777;53.066;21.638;2022-09-30T06:24:55;30.38;;;16.60;;
51692;SDS011;37777;53.066;21.638;2022-09-30T06:31:57;29.42;;;16.25;;
51692;SDS011;37777;53.066;21.638;2022-09-30T06:38:59;33.55;;;17.45;;
51692;SDS011;37777;53.066;21.638;2022-09-30T06:46:02;33.30;;;18.20;;
51692;SDS011;37777;53.066;21.638;2022-09-30T06:53:16;37.13;;;18.35;;
51692;SDS011;37777;53.066;21.638;2022-09-30T07:00:18;33.72;;;17.40;;
51692;SDS011;37777;53.066;21.638;2022-09-30T07:07:20;31.52;;;16.65;;
51692;SDS011;37777;53.066;21.638;2022-09-30T07:14:22;38.72;;;19.42;;
51692;SDS011;37777;53.066;21.638;2022-09-30T07:21:24;30.95;;;17.88;;
51692;SDS011;37777;53.066;21.638;2022-09-30T07:28:27;35.13;;;19.38;;
51692;SDS011;37777;53.066;21.638;2022-09-30T07:35:32;32.55;;;18.48;;
51692;SDS011;37777;53.066;21.638;2022-09-30T07:42:38;33.75;;;18.05;;
51692;SDS011;37777;53.066;21.638;2022-09-30T07:49:45;29.45;;;16.83;;
51692;SDS011;37777;53.066;21.638;2022-09-30T07:56:47;29.55;;;15.32;;
51692;SDS011;37777;53.066;21.638;2022-09-30T08:04:09;26.75;;;14.50;;
51692;SDS011;37777;53.066;21.638;2022-09-30T08:11:12;27.33;;;15.30;;
51692;SDS011;37777;53.066;21.638;2022-09-30T08:18:15;28.42;;;15.55;;
51692;SDS011;37777;53.066;21.638;2022-09-30T08:25:16;26.38;;;14.43;;
51692;SDS011;37777;53.066;21.638;2022-09-30T08:32:18;21.63;;;11.68;;
51692;SDS011;37777;53.066;21.638;2022-09-30T08:39:20;18.95;;;11.60;;
51692;SDS011;37777;53.066;21.638;2022-09-30T08:53:28;22.52;;;13.15;;
51692;SDS011;37777;53.066;21.638;2022-09-30T09:00:32;20.77;;;13.23;;
51692;SDS011;37777;53.066;21.638;2022-09-30T09:14:43;25.27;;;13.10;;
51692;SDS011;37777;53.066;21.638;2022-09-30T09:22:00;25.77;;;14.88;;
51692;SDS011;37777;53.066;21.638;2022-09-30T09:36:32;24.85;;;13.38;;
51692;SDS011;37777;53.066;21.638;2022-09-30T09:50:54;25.40;;;14.02;;
51692;SDS011;37777;53.066;21.638;2022-09-30T09:58:05;25.10;;;14.52;;
51692;SDS011;37777;53.066;21.638;2022-09-30T10:05:15;28.77;;;15.35;;
51692;SDS011;37777;53.066;21.638;2022-09-30T10:12:26;29.67;;;15.30;;
51692;SDS011;37777;53.066;21.638;2022-09-30T10:19:28;27.98;;;14.63;;
51692;SDS011;37777;53.066;21.638;2022-09-30T10:26:32;29.27;;;14.35;;
51692;SDS011;37777;53.066;21.638;2022-09-30T10:41:09;20.25;;;12.88;;
51692;SDS011;37777;53.066;21.638;2022-09-30T10:48:16;20.02;;;12.70;;
51692;SDS011;37777;53.066;21.638;2022-09-30T11:09:36;23.02;;;12.95;;
51692;SDS011;37777;53.066;21.638;2022-09-30T11:24:02;16.65;;;10.20;;
51692;SDS011;37777;53.066;21.638;2022-09-30T11:52:35;22.05;;;11.30;;
51692;SDS011;37777;53.066;21.638;2022-09-30T12:06:57;14.05;;;9.18;;
51692;SDS011;37777;53.066;21.638;2022-09-30T12:14:01;16.30;;;9.02;;
51692;SDS011;37777;53.066;21.638;2022-09-30T12:28:32;13.13;;;8.90;;
51692;SDS011;37777;53.066;21.638;2022-09-30T12:36:01;13.90;;;8.98;;
51692;SDS011;37777;53.066;21.638;2022-09-30T12:43:19;11.45;;;7.85;;
51692;SDS011;37777;53.066;21.638;2022-09-30T12:50:26;11.23;;;7.60;;
51692;SDS011;37777;53.066;21.638;2022-09-30T12:57:30;9.05;;;6.72;;
51692;SDS011;37777;53.066;21.638;2022-09-30T13:11:39;7.80;;;6.35;;
51692;SDS011;37777;53.066;21.638;2022-09-30T13:25:52;14.30;;;8.98;;
51692;SDS011;37777;53.066;21.638;2022-09-30T13:40:00;12.75;;;9.20;;
51692;SDS011;37777;53.066;21.638;2022-09-30T13:47:16;16.48;;;10.32;;
51692;SDS011;37777;53.066;21.638;2022-09-30T13:54:26;18.17;;;10.23;;
51692;SDS011;37777;53.066;21.638;2022-09-30T14:08:43;17.35;;;10.88;;
51692;SDS011;37777;53.066;21.638;2022-09-30T14:37:16;17.63;;;10.98;;
51692;SDS011;37777;53.066;21.638;2022-09-30T14:44:20;16.60;;;10.10;;
51692;SDS011;37777;53.066;21.638;2022-09-30T14:51:23;17.40;;;10.65;;
51692;SDS011;37777;53.066;21.638;2022-09-30T14:58:30;17.23;;;11.02;;
51692;SDS011;37777;53.066;21.638;2022-09-30T15:05:32;17.27;;;10.77;;
51692;SDS011;37777;53.066;21.638;2022-09-30T15:12:36;17.15;;;10.35;;
51692;SDS011;37777;53.066;21.638;2022-09-30T15:19:42;15.38;;;9.40;;
51692;SDS011;37777;53.066;21.638;2022-09-30T15:26:44;17.88;;;10.98;;
51692;SDS011;37777;53.066;21.638;2022-09-30T15:41:12;18.70;;;11.55;;
51692;SDS011;37777;53.066;21.638;2022-09-30T15:55:37;28.23;;;16.50;;
51692;SDS011;37777;53.066;21.638;2022-09-30T16:02:42;26.70;;;15.98;;
51692;SDS011;37777;53.066;21.638;2022-09-30T16:09:44;27.80;;;15.38;;
51692;SDS011;37777;53.066;21.638;2022-09-30T16:16:49;24.80;;;13.80;;
51692;SDS011;37777;53.066;21.638;2022-09-30T16:23:55;27.95;;;13.77;;
51692;SDS011;37777;53.066;21.638;2022-09-30T16:30:57;24.83;;;14.65;;
51692;SDS011;37777;53.066;21.638;2022-09-30T16:38:00;29.00;;;15.65;;
51692;SDS011;37777;53.066;21.638;2022-09-30T16:45:02;26.15;;;15.63;;
51692;SDS011;37777;53.066;21.638;2022-09-30T16:52:05;22.45;;;13.02;;
51692;SDS011;37777;53.066;21.638;2022-09-30T16:59:13;20.75;;;12.30;;
51692;SDS011;37777;53.066;21.638;2022-09-30T17:06:17;23.20;;;13.73;;
51692;SDS011;37777;53.066;21.638;2022-09-30T17:13:19;29.10;;;13.65;;
51692;SDS011;37777;53.066;21.638;2022-09-30T17:20:22;26.45;;;13.63;;
51692;SDS011;37777;53.066;21.638;2022-09-30T17:27:24;34.67;;;16.83;;
51692;SDS011;37777;53.066;21.638;2022-09-30T17:34:26;31.63;;;15.63;;
51692;SDS011;37777;53.066;21.638;2022-09-30T17:41:28;38.33;;;17.63;;
51692;SDS011;37777;53.066;21.638;2022-09-30T17:48:48;33.65;;;16.85;;
51692;SDS011;37777;53.066;21.638;2022-09-30T17:56:02;32.80;;;16.52;;
51692;SDS011;37777;53.066;21.638;2022-09-30T18:03:04;31.10;;;15.85;;
51692;SDS011;37777;53.066;21.638;2022-09-30T18:10:07;30.42;;;17.13;;
51692;SDS011;37777;53.066;21.638;2022-09-30T18:17:09;36.70;;;17.13;;
51692;SDS011;37777;53.066;21.638;2022-09-30T18:24:12;29.33;;;15.93;;
51692;SDS011;37777;53.066;21.638;2022-09-30T18:31:14;27.45;;;15.35;;
51692;SDS011;37777;53.066;21.638;2022-09-30T18:38:21;28.15;;;15.68;;
51692;SDS011;37777;53.066;21.638;2022-09-30T18:45:24;30.35;;;16.40;;
51692;SDS011;37777;53.066;21.638;2022-09-30T18:52:26;32.58;;;16.63;;
51692;SDS011;37777;53.066;21.638;2022-09-30T18:59:28;37.08;;;18.73;;
51692;SDS011;37777;53.066;21.638;2022-09-30T19:06:30;57.97;;;25.77;;
51692;SDS011;37777;53.066;21.638;2022-09-30T19:13:32;35.88;;;19.52;;
51692;SDS011;37777;53.066;21.638;2022-09-30T19:20:35;35.53;;;19.15;;
51692;SDS011;37777;53.066;21.638;2022-09-30T19:27:38;38.88;;;18.95;;
51692;SDS011;37777;53.066;21.638;2022-09-30T19:34:41;32.25;;;18.00;;
51692;SDS011;37777;53.066;21.638;2022-09-30T19:41:44;30.05;;;16.67;;
51692;SDS011;37777;53.066;21.638;2022-09-30T19:49:04;32.45;;;18.70;;
51692;SDS011;37777;53.066;21.638;2022-09-30T19:56:17;36.92;;;18.58;;
51692;SDS011;37777;53.066;21.638;2022-09-30T20:03:20;35.00;;;18.75;;
51692;SDS011;37777;53.066;21.638;2022-09-30T20:10:26;34.95;;;18.83;;
51692;SDS011;37777;53.066;21.638;2022-09-30T20:17:28;38.78;;;19.15;;
51692;SDS011;37777;53.066;21.638;2022-09-30T20:24:30;37.55;;;20.17;;
51692;SDS011;37777;53.066;21.638;2022-09-30T20:31:32;37.85;;;20.42;;
51692;SDS011;37777;53.066;21.638;2022-09-30T20:38:36;37.20;;;19.63;;
51692;SDS011;37777;53.066;21.638;2022-09-30T20:45:40;35.58;;;20.73;;
51692;SDS011;37777;53.066;21.638;2022-09-30T20:52:42;47.50;;;22.02;;
51692;SDS011;37777;53.066;21.638;2022-09-30T20:59:45;45.00;;;23.63;;
51692;SDS011;37777;53.066;21.638;2022-09-30T21:06:47;45.17;;;23.38;;
51692;SDS011;37777;53.066;21.638;2022-09-30T21:13:50;43.13;;;21.90;;
51692;SDS011;37777;53.066;21.638;2022-09-30T21:20:56;38.03;;;21.05;;
51692;SDS011;37777;53.066;21.638;2022-09-30T21:27:59;44.22;;;21.27;;
51692;SDS011;37777;53.066;21.638;2022-09-30T21:35:01;48.30;;;21.00;;
51692;SDS011;37777;53.066;21.638;2022-09-30T21:42:03;40.10;;;20.65;;
51692;SDS011;37777;53.066;21.638;2022-09-30T21:49:16;37.75;;;19.58;;
51692;SDS011;37777;53.066;21.638;2022-09-30T21:56:18;36.03;;;20.05;;
51692;SDS011;37777;53.066;21.638;2022-09-30T22:03:20;44.42;;;22.63;;
51692;SDS011;37777;53.066;21.638;2022-09-30T22:10:23;38.58;;;21.65;;
51692;SDS011;37777;53.066;21.638;2022-09-30T22:17:25;40.90;;;21.27;;
51692;SDS011;37777;53.066;21.638;2022-09-30T22:24:27;33.60;;;18.98;;
51692;SDS011;37777;53.066;21.638;2022-09-30T22:31:29;39.47;;;20.75;;
51692;SDS011;37777;53.066;21.638;2022-09-30T22:38:33;41.85;;;20.95;;
51692;SDS011;37777;53.066;21.638;2022-09-30T22:45:34;41.15;;;21.45;;
51692;SDS011;37777;53.066;21.638;2022-09-30T22:52:36;42.50;;;21.85;;
51692;SDS011;37777;53.066;21.638;2022-09-30T22:59:38;37.42;;;21.05;;
51692;SDS011;37777;53.066;21.638;2022-09-30T23:06:43;44.90;;;22.85;;
51692;SDS011;37777;53.066;21.638;2022-09-30T23:13:45;41.47;;;22.05;;
51692;SDS011;37777;53.066;21.638;2022-09-30T23:20:56;35.88;;;20.75;;
51692;SDS011;37777;53.066;21.638;2022-09-30T23:27:59;45.20;;;23.15;;
51692;SDS011;37777;53.066;21.638;2022-09-30T23:35:01;35.78;;;21.02;;
51692;SDS011;37777;53.066;21.638;2022-09-30T23:42:02;36.55;;;20.55;;
51692;SDS011;37777;53.066;21.638;2022-09-30T23:49:04;38.28;;;20.20;;
51692;SDS011;37777;53.066;21.638;2022-09-30T23:56:08;32.08;;;18.30;;
